createdAt,value
2019-02-15T00:00:27.647Z,99.99
2019-02-15T00:01:12.998Z,99.99
2019-02-15T00:02:13.010Z,99.99
2019-02-15T00:03:13.022Z,99.99
2019-02-15T00:04:13.039Z,99.99
2019-02-15T00:05:13.050Z,99.99
2019-02-15T00:06:13.062Z,99.99
2019-02-15T00:07:13.075Z,99.99
2019-02-15T00:08:13.088Z,99.99
2019-02-15T00:09:13.100Z,99.99
2019-02-15T00:10:13.116Z,99.99
2019-02-15T00:11:13.127Z,99.99
2019-02-15T00:12:13.143Z,99.99
2019-02-15T00:13:16.145Z,99.99
2019-02-15T00:14:13.175Z,99.99
2019-02-15T00:15:13.184Z,99.99
2019-02-15T00:16:13.195Z,99.99
2019-02-15T00:17:13.206Z,99.99
2019-02-15T00:18:13.224Z,99.99
2019-02-15T00:19:13.236Z,99.99
2019-02-15T00:20:13.246Z,99.99
2019-02-15T00:21:13.260Z,99.99
2019-02-15T00:22:13.286Z,99.99
2019-02-15T00:23:13.285Z,99.99
2019-02-15T00:24:13.299Z,99.99
2019-02-15T00:25:13.312Z,99.99
2019-02-15T00:26:13.324Z,99.99
2019-02-15T00:27:13.338Z,99.99
2019-02-15T00:28:13.362Z,99.99
2019-02-15T00:29:13.374Z,99.99
2019-02-15T00:30:13.377Z,99.99
2019-02-15T00:31:13.488Z,99.99
2019-02-15T00:32:28.065Z,99.99
2019-02-15T00:33:13.419Z,99.99
2019-02-15T00:34:13.431Z,99.99
2019-02-15T00:35:13.440Z,99.99
2019-02-15T00:36:13.453Z,99.99
2019-02-15T00:37:13.468Z,99.99
2019-02-15T00:38:13.485Z,99.99
2019-02-15T00:39:13.496Z,99.99
2019-02-15T00:40:13.506Z,99.99
2019-02-15T00:41:13.520Z,99.99
2019-02-15T00:42:13.579Z,99.99
2019-02-15T00:43:21.907Z,99.99
2019-02-15T00:47:13.601Z,99.99
2019-02-15T00:48:28.272Z,99.99
2019-02-15T00:49:13.623Z,99.99
2019-02-15T00:50:13.635Z,99.99
2019-02-15T00:51:13.749Z,99.99
2019-02-15T00:52:13.660Z,99.99
2019-02-15T00:53:13.437Z,99.99
2019-02-15T00:54:13.686Z,99.99
2019-02-15T00:55:13.704Z,99.99
2019-02-15T00:56:13.715Z,99.99
2019-02-15T00:57:13.725Z,99.99
2019-02-15T00:58:13.738Z,99.99
2019-02-15T00:59:13.751Z,99.99
2019-02-15T01:00:13.778Z,99.99
2019-02-15T01:02:13.789Z,99.99
2019-02-15T01:03:13.902Z,99.99
2019-02-15T01:04:28.479Z,99.99
2019-02-15T01:05:13.828Z,99.99
2019-02-15T01:06:13.844Z,99.99
2019-02-15T01:07:13.856Z,99.99
2019-02-15T01:08:13.934Z,99.99
2019-02-15T01:09:13.880Z,99.99
2019-02-15T01:10:13.893Z,99.99
2019-02-15T01:11:13.907Z,99.99
2019-02-15T01:12:13.917Z,99.99
2019-02-15T01:13:13.937Z,99.99
2019-02-15T01:14:13.944Z,99.99
2019-02-15T01:15:13.956Z,99.99
2019-02-15T01:16:13.970Z,99.99
2019-02-15T01:17:13.983Z,99.99
2019-02-15T01:18:13.998Z,99.99
2019-02-15T01:19:14.007Z,99.99
2019-02-15T01:20:28.685Z,99.99
2019-02-15T01:21:14.032Z,99.99
2019-02-15T01:22:14.045Z,99.99
2019-02-15T01:23:14.058Z,99.99
2019-02-15T01:24:14.071Z,99.99
2019-02-15T01:25:14.084Z,99.99
2019-02-15T01:26:14.098Z,99.99
2019-02-15T01:27:14.114Z,99.99
2019-02-15T01:28:14.123Z,99.99
2019-02-15T01:29:14.136Z,99.99
2019-02-15T01:30:14.147Z,99.99
2019-02-15T01:31:14.163Z,99.99
2019-02-15T01:32:14.172Z,99.99
2019-02-15T01:33:14.189Z,99.99
2019-02-15T01:34:14.198Z,99.99
2019-02-15T01:35:28.874Z,99.99
2019-02-15T01:36:14.224Z,99.99
2019-02-15T01:37:14.237Z,99.99
2019-02-15T01:38:14.249Z,99.99
2019-02-15T01:39:14.264Z,99.99
2019-02-15T01:40:14.275Z,99.99
2019-02-15T01:42:14.334Z,99.99
2019-02-15T01:43:14.316Z,99.99
2019-02-15T01:44:14.325Z,99.99
2019-02-15T01:45:14.336Z,99.99
2019-02-15T01:46:14.353Z,99.99
2019-02-15T01:47:14.362Z,99.99
2019-02-15T01:48:14.374Z,99.99
2019-02-15T01:49:14.388Z,99.99
2019-02-15T01:50:14.400Z,99.99
2019-02-15T01:51:14.475Z,99.99
2019-02-15T01:52:14.446Z,99.99
2019-02-15T01:53:14.437Z,99.99
2019-02-15T01:54:14.451Z,99.99
2019-02-15T01:55:14.462Z,99.99
2019-02-15T01:56:14.479Z,99.99
2019-02-15T01:57:14.489Z,99.99
2019-02-15T01:58:14.508Z,99.99
2019-02-15T01:59:14.518Z,99.99
2019-02-15T02:00:14.525Z,99.99
2019-02-15T02:01:14.540Z,99.99
2019-02-15T02:02:14.551Z,99.99
2019-02-15T02:03:14.562Z,99.99
2019-02-15T02:05:14.589Z,99.99
2019-02-15T02:06:14.600Z,99.99
2019-02-15T02:07:29.276Z,99.99
2019-02-15T02:08:14.695Z,99.99
2019-02-15T02:09:14.643Z,99.99
2019-02-15T02:10:14.653Z,99.99
2019-02-15T02:11:14.670Z,99.99
2019-02-15T02:13:14.697Z,99.99
2019-02-15T02:14:14.705Z,99.99
2019-02-15T02:16:14.487Z,99.99
2019-02-15T02:17:14.738Z,99.99
2019-02-15T02:18:14.751Z,99.99
2019-02-15T02:19:14.763Z,99.99
2019-02-15T02:20:14.779Z,99.99
2019-02-15T02:21:14.803Z,99.99
2019-02-15T02:22:14.801Z,99.99
2019-02-15T02:23:29.476Z,99.99
2019-02-15T02:24:14.835Z,99.99
2019-02-15T02:25:14.841Z,99.99
2019-02-15T02:26:14.854Z,99.99
2019-02-15T02:27:14.871Z,99.99
2019-02-15T02:28:14.882Z,99.99
2019-02-15T02:29:14.888Z,99.99
2019-02-15T02:30:14.910Z,99.99
2019-02-15T02:31:14.931Z,99.99
2019-02-15T02:32:14.952Z,99.99
2019-02-15T02:33:14.952Z,99.99
2019-02-15T02:34:14.963Z,99.99
2019-02-15T02:35:14.966Z,99.99
2019-02-15T02:36:14.984Z,99.99
2019-02-15T02:37:14.990Z,99.99
2019-02-15T02:38:15.002Z,99.99
2019-02-15T02:39:29.677Z,99.99
2019-02-15T02:40:15.099Z,99.99
2019-02-15T02:41:15.037Z,99.99
2019-02-15T02:42:15.053Z,99.99
2019-02-15T02:43:15.060Z,99.99
2019-02-15T02:44:15.074Z,99.99
2019-02-15T02:45:15.112Z,99.99
2019-02-15T02:46:15.100Z,99.99
2019-02-15T02:47:15.114Z,99.99
2019-02-15T02:48:15.125Z,99.99
2019-02-15T02:49:15.144Z,99.99
2019-02-15T02:50:15.163Z,99.99
2019-02-15T02:52:15.173Z,99.99
2019-02-15T02:53:15.187Z,99.99
2019-02-15T02:54:15.204Z,99.99
2019-02-15T02:55:29.873Z,99.99
2019-02-15T02:56:15.222Z,99.99
2019-02-15T02:57:15.247Z,99.99
2019-02-15T02:58:15.253Z,99.99
2019-02-15T02:59:15.259Z,99.99
2019-02-15T03:00:15.273Z,99.99
2019-02-15T03:01:15.296Z,99.99
2019-02-15T03:02:15.326Z,99.99
2019-02-15T03:03:15.309Z,99.99
2019-02-15T03:05:15.332Z,99.99
2019-02-15T03:06:15.370Z,99.99
2019-02-15T03:07:15.358Z,99.99
2019-02-15T03:08:15.373Z,99.99
2019-02-15T03:09:15.400Z,99.99
2019-02-15T03:10:30.058Z,99.99
2019-02-15T03:11:15.410Z,99.99
2019-02-15T03:12:15.434Z,99.99
2019-02-15T03:13:15.430Z,99.99
2019-02-15T03:14:15.458Z,99.99
2019-02-15T03:15:15.561Z,99.99
2019-02-15T03:16:15.471Z,99.99
2019-02-15T03:17:15.485Z,99.99
2019-02-15T03:18:15.495Z,99.99
2019-02-15T03:19:15.505Z,99.99
2019-02-15T03:20:15.517Z,99.99
2019-02-15T03:21:15.533Z,99.99
2019-02-15T03:23:15.579Z,99.99
2019-02-15T03:24:15.599Z,99.99
2019-02-15T03:25:15.578Z,99.99
2019-02-15T03:26:15.589Z,99.99
2019-02-15T03:27:15.609Z,99.99
2019-02-15T03:28:15.617Z,99.99
2019-02-15T03:29:15.626Z,99.99
2019-02-15T03:30:15.744Z,99.99
2019-02-15T03:31:15.656Z,99.99
2019-02-15T03:32:15.672Z,99.99
2019-02-15T03:33:15.682Z,99.99
2019-02-15T03:34:15.702Z,99.99
2019-02-15T03:35:15.698Z,99.99
2019-02-15T03:36:15.712Z,99.99
2019-02-15T03:37:15.508Z,99.99
2019-02-15T03:38:15.746Z,99.99
2019-02-15T03:39:15.755Z,99.99
2019-02-15T03:40:15.864Z,99.99
2019-02-15T03:41:15.774Z,99.99
2019-02-15T03:42:30.444Z,99.99
2019-02-15T03:43:15.909Z,99.99
2019-02-15T03:44:24.710Z,99.99
2019-02-15T03:46:15.832Z,99.99
2019-02-15T03:47:15.842Z,99.99
2019-02-15T03:48:15.861Z,99.99
2019-02-15T03:49:15.870Z,99.99
2019-02-15T03:50:15.882Z,99.99
2019-02-15T03:52:15.904Z,99.99
2019-02-15T03:55:15.943Z,99.99
2019-02-15T03:56:15.950Z,99.99
2019-02-15T03:57:15.965Z,99.99
2019-02-15T03:58:30.637Z,99.99
2019-02-15T03:59:15.993Z,99.99
2019-02-15T04:00:16.011Z,99.99
2019-02-15T04:01:16.023Z,99.99
2019-02-15T04:02:16.028Z,99.99
2019-02-15T04:03:16.047Z,99.99
2019-02-15T04:04:16.048Z,99.99
2019-02-15T04:05:16.072Z,99.99
2019-02-15T04:06:16.070Z,99.99
2019-02-15T04:08:16.104Z,99.99
2019-02-15T04:09:16.149Z,99.99
2019-02-15T04:11:16.165Z,99.99
2019-02-15T04:12:16.146Z,99.99
2019-02-15T04:13:16.158Z,99.99
2019-02-15T04:14:33.048Z,99.99
2019-02-15T04:15:16.181Z,99.99
2019-02-15T04:16:16.192Z,99.99
2019-02-15T04:17:16.209Z,99.99
2019-02-15T04:18:16.216Z,99.99
2019-02-15T04:19:16.225Z,99.99
2019-02-15T04:20:16.241Z,99.99
2019-02-15T04:21:16.311Z,99.99
2019-02-15T04:22:16.307Z,99.99
2019-02-15T04:23:16.274Z,99.99
2019-02-15T04:24:16.287Z,99.99
2019-02-15T04:25:16.305Z,99.99
2019-02-15T04:26:16.310Z,99.99
2019-02-15T04:27:16.327Z,99.99
2019-02-15T04:28:16.337Z,99.99
2019-02-15T04:29:16.346Z,99.99
2019-02-15T04:30:31.019Z,99.99
2019-02-15T04:31:16.370Z,99.99
2019-02-15T04:32:16.387Z,99.99
2019-02-15T04:33:16.393Z,99.99
2019-02-15T04:34:16.408Z,99.99
2019-02-15T04:35:16.419Z,99.99
2019-02-15T04:36:16.434Z,99.99
2019-02-15T04:37:16.440Z,99.99
2019-02-15T04:38:16.474Z,99.99
2019-02-15T04:39:16.466Z,99.99
2019-02-15T04:40:16.477Z,99.99
2019-02-15T04:41:16.495Z,99.99
2019-02-15T04:42:16.530Z,99.99
2019-02-15T04:43:16.536Z,99.99
2019-02-15T04:44:16.527Z,99.99
2019-02-15T04:45:31.208Z,99.99
2019-02-15T04:46:16.560Z,99.99
2019-02-15T04:47:16.564Z,99.99
2019-02-15T04:48:16.573Z,99.99
2019-02-15T04:49:16.586Z,99.99
2019-02-15T04:50:16.599Z,99.99
2019-02-15T04:51:16.612Z,99.99
2019-02-15T04:52:16.621Z,99.99
2019-02-15T04:53:16.638Z,99.99
2019-02-15T04:54:16.644Z,99.99
2019-02-15T04:55:16.660Z,99.99
2019-02-15T04:57:16.684Z,99.99
2019-02-15T04:58:16.690Z,99.99
2019-02-15T04:59:16.749Z,99.99
2019-02-15T05:00:16.718Z,99.99
2019-02-15T05:01:16.737Z,99.99
2019-02-15T05:02:16.743Z,99.99
2019-02-15T05:04:16.768Z,99.99
2019-02-15T05:05:16.775Z,99.99
2019-02-15T05:06:16.818Z,99.99
2019-02-15T05:07:16.800Z,99.99
2019-02-15T05:08:16.826Z,99.99
2019-02-15T05:09:16.826Z,99.99
2019-02-15T05:10:16.839Z,99.99
2019-02-15T05:12:16.863Z,99.99
2019-02-15T05:13:16.871Z,99.99
2019-02-15T05:14:16.881Z,99.99
2019-02-15T05:15:16.906Z,99.99
2019-02-15T05:16:16.910Z,99.99
2019-02-15T05:17:31.579Z,99.99
2019-02-15T05:18:16.929Z,99.99
2019-02-15T05:19:16.950Z,99.99
2019-02-15T05:20:16.959Z,99.99
2019-02-15T05:21:16.962Z,99.99
2019-02-15T05:22:16.975Z,99.99
2019-02-15T05:24:17.000Z,99.99
2019-02-15T05:25:17.113Z,99.99
2019-02-15T05:26:17.022Z,99.99
2019-02-15T05:27:17.032Z,99.99
2019-02-15T05:28:17.044Z,99.99
2019-02-15T05:29:17.064Z,99.99
2019-02-15T05:30:17.083Z,99.99
2019-02-15T05:31:17.080Z,99.99
2019-02-15T05:32:17.097Z,99.99
2019-02-15T05:33:31.767Z,99.99
2019-02-15T05:34:17.118Z,99.99
2019-02-15T05:35:17.163Z,99.99
2019-02-15T05:36:17.140Z,99.99
2019-02-15T05:37:17.153Z,99.99
2019-02-15T05:38:17.166Z,99.99
2019-02-15T05:39:17.174Z,99.99
2019-02-15T05:40:17.190Z,99.99
2019-02-15T05:41:17.201Z,99.99
2019-02-15T05:43:17.227Z,99.99
2019-02-15T05:44:18.778Z,99.99
2019-02-15T05:45:17.247Z,99.99
2019-02-15T05:47:17.271Z,99.99
2019-02-15T05:48:17.282Z,99.99
2019-02-15T05:49:31.954Z,99.99
2019-02-15T05:50:17.312Z,99.99
2019-02-15T05:51:17.322Z,99.99
2019-02-15T05:52:17.337Z,99.99
2019-02-15T05:53:17.341Z,99.99
2019-02-15T05:54:17.349Z,99.99
2019-02-15T05:55:17.364Z,99.99
2019-02-15T05:56:17.373Z,99.99
2019-02-15T05:57:17.389Z,99.99
2019-02-15T05:58:17.404Z,99.99
2019-02-15T05:59:17.411Z,99.99
2019-02-15T06:00:17.423Z,99.99
2019-02-15T06:02:17.442Z,99.99
2019-02-15T06:03:17.456Z,99.99
2019-02-15T06:04:17.481Z,99.99
2019-02-15T06:05:32.140Z,99.99
2019-02-15T06:06:17.495Z,99.99
2019-02-15T06:07:17.504Z,99.99
2019-02-15T06:08:17.528Z,99.99
2019-02-15T06:10:17.537Z,99.99
2019-02-15T06:11:17.560Z,99.99
2019-02-15T06:12:17.559Z,99.99
2019-02-15T06:13:17.582Z,99.99
2019-02-15T06:14:17.585Z,99.99
2019-02-15T06:15:18.231Z,99.99
2019-02-15T06:16:17.605Z,99.99
2019-02-15T06:18:17.633Z,99.99
2019-02-15T06:19:17.646Z,99.99
2019-02-15T06:20:32.319Z,99.99
2019-02-15T06:21:17.671Z,99.99
2019-02-15T06:22:17.677Z,99.99
2019-02-15T06:23:17.688Z,99.99
2019-02-15T06:24:17.700Z,99.99
2019-02-15T06:25:17.748Z,99.99
2019-02-15T06:26:17.723Z,99.99
2019-02-15T06:27:17.737Z,99.99
2019-02-15T06:28:17.746Z,99.99
2019-02-15T06:29:17.758Z,99.99
2019-02-15T06:30:17.774Z,99.99
2019-02-15T06:31:17.781Z,99.99
2019-02-15T06:32:17.793Z,99.99
2019-02-15T06:33:17.803Z,99.99
2019-02-15T06:34:17.817Z,99.99
2019-02-15T06:35:17.932Z,99.99
2019-02-15T06:36:17.844Z,99.99
2019-02-15T06:37:17.857Z,99.99
2019-02-15T06:38:17.864Z,99.99
2019-02-15T06:39:17.879Z,99.99
2019-02-15T06:40:17.886Z,99.99
2019-02-15T06:41:17.902Z,99.99
2019-02-15T06:42:17.919Z,99.99
2019-02-15T06:43:17.925Z,99.99
2019-02-15T06:44:17.934Z,99.99
2019-02-15T06:45:26.633Z,99.99
2019-02-15T06:46:17.955Z,99.99
2019-02-15T06:47:17.968Z,99.99
2019-02-15T06:48:17.980Z,99.99
2019-02-15T06:49:17.991Z,99.99
2019-02-15T06:50:18.011Z,99.99
2019-02-15T06:51:18.027Z,99.99
2019-02-15T06:52:32.691Z,99.99
2019-02-15T06:53:18.039Z,99.99
2019-02-15T06:54:18.050Z,99.99
2019-02-15T06:55:18.062Z,99.99
2019-02-15T06:57:18.085Z,99.99
2019-02-15T06:58:18.095Z,99.99
2019-02-15T06:59:18.109Z,99.99
2019-02-15T07:00:18.122Z,99.99
2019-02-15T07:01:18.141Z,99.99
2019-02-15T07:02:18.146Z,99.99
2019-02-15T07:03:18.157Z,99.99
2019-02-15T07:04:18.166Z,99.99
2019-02-15T07:07:18.201Z,99.99
2019-02-15T07:08:32.876Z,99.99
2019-02-15T07:09:18.230Z,99.99
2019-02-15T07:10:18.240Z,99.99
2019-02-15T07:11:18.251Z,99.99
2019-02-15T07:12:18.263Z,99.99
2019-02-15T07:13:18.291Z,99.99
2019-02-15T07:14:18.295Z,99.99
2019-02-15T07:15:18.305Z,99.99
2019-02-15T07:16:18.314Z,99.99
2019-02-15T07:17:18.321Z,99.99
2019-02-15T07:19:18.344Z,99.99
2019-02-15T07:20:18.385Z,99.99
2019-02-15T07:21:18.373Z,99.99
2019-02-15T07:22:18.381Z,99.99
2019-02-15T07:23:18.396Z,99.99
2019-02-15T07:24:33.069Z,99.99
2019-02-15T07:25:18.423Z,99.99
2019-02-15T07:26:18.468Z,99.99
2019-02-15T07:27:18.449Z,99.99
2019-02-15T07:28:18.463Z,99.99
2019-02-15T07:29:18.475Z,99.99
2019-02-15T07:30:18.500Z,99.99
2019-02-15T07:31:18.605Z,99.99
2019-02-15T07:32:18.519Z,99.99
2019-02-15T07:33:18.534Z,99.99
2019-02-15T07:34:18.550Z,99.99
2019-02-15T07:35:18.581Z,99.99
2019-02-15T07:36:18.581Z,99.99
2019-02-15T07:37:18.601Z,99.99
2019-02-15T07:38:18.623Z,99.99
2019-02-15T07:39:18.628Z,99.99
2019-02-15T07:40:33.308Z,99.99
2019-02-15T07:41:18.660Z,99.99
2019-02-15T07:42:18.706Z,99.99
2019-02-15T07:43:18.691Z,99.99
2019-02-15T07:44:18.708Z,99.99
2019-02-15T07:45:20.354Z,99.99
2019-02-15T07:46:18.744Z,99.99
2019-02-15T07:47:18.759Z,99.99
2019-02-15T07:48:18.776Z,99.99
2019-02-15T07:50:18.808Z,99.99
2019-02-15T07:51:18.838Z,99.99
2019-02-15T07:52:18.845Z,99.99
2019-02-15T07:53:18.862Z,99.99
2019-02-15T07:54:18.877Z,99.99
2019-02-15T07:55:33.557Z,99.99
2019-02-15T07:56:18.916Z,99.99
2019-02-15T07:57:18.929Z,99.99
2019-02-15T07:58:18.972Z,99.99
2019-02-15T07:59:18.963Z,99.99
2019-02-15T08:00:18.978Z,99.99
2019-02-15T08:01:19.013Z,99.99
2019-02-15T08:02:19.015Z,99.99
2019-02-15T08:03:19.033Z,99.99
2019-02-15T08:04:19.047Z,99.99
2019-02-15T08:05:19.077Z,99.99
2019-02-15T08:06:19.082Z,99.99
2019-02-15T08:07:19.110Z,99.99
2019-02-15T08:08:19.116Z,99.99
2019-02-15T08:09:19.135Z,99.99
2019-02-15T08:10:19.155Z,99.99
2019-02-15T08:11:19.170Z,99.99
2019-02-15T08:12:19.190Z,99.99
2019-02-15T08:13:19.203Z,99.99
2019-02-15T08:15:19.237Z,99.99
2019-02-15T08:16:19.264Z,99.99
2019-02-15T08:18:19.293Z,99.99
2019-02-15T08:19:21.147Z,99.99
2019-02-15T08:20:19.325Z,99.99
2019-02-15T08:21:19.348Z,99.99
2019-02-15T08:23:19.380Z,99.99
2019-02-15T08:24:19.394Z,99.99
2019-02-15T08:25:19.417Z,99.99
2019-02-15T08:26:19.529Z,99.99
2019-02-15T08:27:34.110Z,99.99
2019-02-15T08:28:19.569Z,99.99
2019-02-15T08:29:19.481Z,99.99
2019-02-15T08:30:19.499Z,99.99
2019-02-15T08:31:19.517Z,99.99
2019-02-15T08:32:19.533Z,99.99
2019-02-15T08:33:19.649Z,99.99
2019-02-15T08:34:19.570Z,99.99
2019-02-15T08:36:19.605Z,99.99
2019-02-15T08:38:19.638Z,99.99
2019-02-15T08:39:19.659Z,99.99
2019-02-15T08:41:19.693Z,99.99
2019-02-15T08:42:19.712Z,99.99
2019-02-15T08:43:34.712Z,99.99
2019-02-15T08:44:19.749Z,99.99
2019-02-15T08:45:19.775Z,99.99
2019-02-15T08:46:19.780Z,99.99
2019-02-15T08:47:19.799Z,99.99
2019-02-15T08:48:19.814Z,99.99
2019-02-15T08:49:19.838Z,99.99
2019-02-15T08:50:19.859Z,99.99
2019-02-15T08:51:19.885Z,99.99
2019-02-15T08:52:19.886Z,99.99
2019-02-15T08:53:19.904Z,99.99
2019-02-15T08:54:19.925Z,99.99
2019-02-15T08:56:19.974Z,99.99
2019-02-15T08:57:20.005Z,99.99
2019-02-15T08:58:19.995Z,99.99
2019-02-15T08:59:34.676Z,99.99
2019-02-15T09:00:20.034Z,99.99
2019-02-15T09:01:20.054Z,99.99
2019-02-15T09:02:20.066Z,99.99
2019-02-15T09:03:21.869Z,99.99
2019-02-15T09:04:20.201Z,99.99
2019-02-15T09:05:20.144Z,99.99
2019-02-15T09:06:20.138Z,99.99
2019-02-15T09:07:20.163Z,99.99
2019-02-15T09:08:20.178Z,99.99
2019-02-15T09:09:20.192Z,99.99
2019-02-15T09:10:20.210Z,99.99
2019-02-15T09:11:20.229Z,99.99
2019-02-15T09:13:20.272Z,97.55
2019-02-15T09:14:20.283Z,99.35
2019-02-15T09:15:34.964Z,99.99
2019-02-15T09:16:20.334Z,99.99
2019-02-15T09:17:20.437Z,99.73
2019-02-15T09:18:20.355Z,99.73
2019-02-15T09:19:20.375Z,99.99
2019-02-15T09:20:20.393Z,98.69
2019-02-15T09:21:20.414Z,97.27
2019-02-15T09:22:20.428Z,97.45
2019-02-15T09:23:20.447Z,96.79
2019-02-15T09:24:20.464Z,96.03
2019-02-15T09:25:20.485Z,95.75
2019-02-15T09:26:20.947Z,95.75
2019-02-15T09:27:20.521Z,94.98
2019-02-15T09:28:20.538Z,95.65
2019-02-15T09:29:20.559Z,96.5
2019-02-15T09:30:35.240Z,96.22
2019-02-15T09:31:20.598Z,96.36
2019-02-15T09:32:20.611Z,95.7
2019-02-15T09:33:20.631Z,95.27
2019-02-15T09:34:20.651Z,94.18
2019-02-15T09:35:20.668Z,94.56
2019-02-15T09:36:20.694Z,94.74
2019-02-15T09:38:20.731Z,92.75
2019-02-15T09:39:20.741Z,92.18
2019-02-15T09:40:20.765Z,91.13
2019-02-15T09:41:20.780Z,90.47
2019-02-15T09:42:20.810Z,90.66
2019-02-15T09:43:20.818Z,90.37
2019-02-15T09:44:20.840Z,90.75
2019-02-15T09:45:20.857Z,90.75
2019-02-15T09:46:22.682Z,90
2019-02-15T09:47:20.894Z,90.09
2019-02-15T09:48:20.945Z,90.28
2019-02-15T09:49:24.367Z,90
2019-02-15T09:50:20.960Z,90.37
2019-02-15T09:51:20.974Z,89.42
2019-02-15T09:52:21.084Z,89.33
2019-02-15T09:53:21.018Z,89.23
2019-02-15T09:54:21.032Z,89.8
2019-02-15T09:55:21.050Z,89.56
2019-02-15T09:56:21.061Z,89.56
2019-02-15T09:57:21.083Z,89.09
2019-02-15T09:58:21.104Z,89.28
2019-02-15T09:59:21.118Z,89.47
2019-02-15T10:00:21.137Z,89.94
2019-02-15T10:01:21.164Z,89.66
2019-02-15T10:02:35.839Z,89.85
2019-02-15T10:03:21.194Z,90.23
2019-02-15T10:04:21.213Z,89.85
2019-02-15T10:05:21.233Z,88.8
2019-02-15T10:06:21.251Z,88.8
2019-02-15T10:07:21.275Z,88.42
2019-02-15T10:08:21.288Z,88.42
2019-02-15T10:09:21.308Z,87.38
2019-02-15T10:10:21.327Z,86.47
2019-02-15T10:11:21.352Z,86.28
2019-02-15T10:12:21.371Z,85.71
2019-02-15T10:13:21.387Z,85.71
2019-02-15T10:14:21.451Z,85.57
2019-02-15T10:15:21.428Z,86.28
2019-02-15T10:16:28.450Z,86.28
2019-02-15T10:17:21.463Z,86.28
2019-02-15T10:18:36.145Z,85.9
2019-02-15T10:19:25.010Z,86.28
2019-02-15T10:20:21.521Z,86.18
2019-02-15T10:21:21.543Z,85.99
2019-02-15T10:22:21.665Z,84.85
2019-02-15T10:23:21.579Z,84.56
2019-02-15T10:24:21.597Z,83.33
2019-02-15T10:25:21.616Z,83.81
2019-02-15T10:26:21.647Z,84.38
2019-02-15T10:28:21.696Z,84.7
2019-02-15T10:30:21.771Z,82.48
2019-02-15T10:31:21.731Z,83.14
2019-02-15T10:32:21.755Z,84.28
2019-02-15T10:33:21.783Z,85.14
2019-02-15T10:34:36.454Z,84.19
2019-02-15T10:35:21.809Z,83.9
2019-02-15T10:36:21.831Z,83.42
2019-02-15T10:37:21.604Z,83.47
2019-02-15T10:38:21.866Z,83.71
2019-02-15T10:39:21.887Z,82.42
2019-02-15T10:40:21.911Z,82.8
2019-02-15T10:42:21.943Z,82.32
2019-02-15T10:43:21.962Z,80.9
2019-02-15T10:44:21.983Z,81.18
2019-02-15T10:45:22.005Z,81.76
2019-02-15T10:46:22.022Z,82.23
2019-02-15T10:47:27.677Z,80.9
2019-02-15T10:48:22.059Z,80.61
2019-02-15T10:49:22.081Z,80.9
2019-02-15T10:50:36.761Z,81.79
2019-02-15T10:51:22.117Z,80.9
2019-02-15T10:52:22.135Z,79.28
2019-02-15T10:54:22.176Z,78.17
2019-02-15T10:55:22.194Z,79.19
2019-02-15T10:56:22.217Z,80.42
2019-02-15T10:57:22.230Z,80.46
2019-02-15T10:58:22.349Z,79.6
2019-02-15T10:59:22.267Z,79.32
2019-02-15T11:00:22.287Z,80.46
2019-02-15T11:01:22.411Z,80.08
2019-02-15T11:02:22.325Z,77.89
2019-02-15T11:03:22.346Z,77.7
2019-02-15T11:04:22.365Z,78.37
2019-02-15T11:05:37.047Z,77.89
2019-02-15T11:06:22.402Z,77.51
2019-02-15T11:07:22.422Z,77.61
2019-02-15T11:08:22.441Z,77.8
2019-02-15T11:09:22.464Z,76.46
2019-02-15T11:10:22.483Z,74.65
2019-02-15T11:11:22.501Z,74.75
2019-02-15T11:12:22.527Z,73.89
2019-02-15T11:13:22.534Z,73.61
2019-02-15T11:14:22.559Z,74.08
2019-02-15T11:15:22.576Z,74.65
2019-02-15T11:16:22.342Z,75.07
2019-02-15T11:19:22.647Z,73.13
2019-02-15T11:20:22.666Z,72.75
2019-02-15T11:21:22.687Z,73.36
2019-02-15T11:22:22.711Z,73.55
2019-02-15T11:23:22.722Z,72.5
2019-02-15T11:24:22.742Z,74.79
2019-02-15T11:25:22.759Z,74.21
2019-02-15T11:26:27.381Z,74.27
2019-02-15T11:27:22.801Z,73.36
2019-02-15T11:28:22.818Z,72.78
2019-02-15T11:29:22.837Z,73.93
2019-02-15T11:30:22.854Z,73.17
2019-02-15T11:31:22.874Z,72.5
2019-02-15T11:32:22.995Z,71.45
2019-02-15T11:33:22.914Z,71.36
2019-02-15T11:34:22.930Z,70.97
2019-02-15T11:35:22.949Z,70.31
2019-02-15T11:36:22.967Z,69.64
2019-02-15T11:37:37.651Z,69.26
2019-02-15T11:38:23.006Z,70.12
2019-02-15T11:39:23.038Z,70.97
2019-02-15T11:40:23.042Z,71.64
2019-02-15T11:41:23.063Z,69.54
2019-02-15T11:42:23.082Z,69.2
2019-02-15T11:43:23.102Z,68.82
2019-02-15T11:45:23.141Z,69.17
2019-02-15T11:46:23.159Z,68.05
2019-02-15T11:47:23.179Z,67.58
2019-02-15T11:48:23.212Z,67.2
2019-02-15T11:49:23.218Z,66.05
2019-02-15T11:50:23.235Z,65.96
2019-02-15T11:51:23.252Z,64.91
2019-02-15T11:52:23.272Z,65
2019-02-15T11:53:37.955Z,63.96
2019-02-15T11:54:26.004Z,63.86
2019-02-15T11:55:23.328Z,65
2019-02-15T11:56:23.361Z,66.05
2019-02-15T11:57:23.367Z,67
2019-02-15T11:58:23.419Z,65.1
2019-02-15T11:59:23.405Z,63
2019-02-15T12:00:25.584Z,63.1
2019-02-15T12:01:23.449Z,62.91
2019-02-15T12:02:23.480Z,63
2019-02-15T12:03:23.486Z,62.72
2019-02-15T12:04:23.502Z,61.86
2019-02-15T12:05:23.524Z,62.72
2019-02-15T12:06:23.639Z,61.96
2019-02-15T12:07:23.558Z,61.96
2019-02-15T12:08:23.576Z,62.72
2019-02-15T12:09:38.260Z,63
2019-02-15T12:10:23.616Z,61.48
2019-02-15T12:11:23.637Z,61.1
2019-02-15T12:12:23.663Z,59.95
2019-02-15T12:13:23.674Z,59.95
2019-02-15T12:14:23.697Z,60.24
2019-02-15T12:15:23.713Z,60.24
2019-02-15T12:16:23.731Z,60.72
2019-02-15T12:17:23.749Z,61.41
2019-02-15T12:18:23.773Z,62.75
2019-02-15T12:19:23.795Z,63.04
2019-02-15T12:20:23.806Z,59.51
2019-02-15T12:21:23.831Z,59.6
2019-02-15T12:23:23.868Z,58.75
2019-02-15T12:24:23.889Z,57.6
2019-02-15T12:25:38.569Z,58.07
2019-02-15T12:26:23.945Z,58.65
2019-02-15T12:27:23.949Z,59.22
2019-02-15T12:28:23.962Z,59.6
2019-02-15T12:29:23.982Z,58.55
2019-02-15T12:30:24.001Z,59.89
2019-02-15T12:31:24.027Z,61.13
2019-02-15T12:32:24.041Z,59.22
2019-02-15T12:33:24.061Z,58.65
2019-02-15T12:34:24.085Z,58.07
2019-02-15T12:35:24.097Z,58.26
2019-02-15T12:36:24.129Z,56.17
2019-02-15T12:37:24.150Z,54.83
2019-02-15T12:38:24.162Z,55.88
2019-02-15T12:39:24.181Z,57.12
2019-02-15T12:40:38.861Z,57.43
2019-02-15T12:41:24.224Z,56.96
2019-02-15T12:42:24.237Z,55.72
2019-02-15T12:43:24.257Z,55.53
2019-02-15T12:44:24.275Z,54.57
2019-02-15T12:45:24.314Z,54.36
2019-02-15T12:46:24.315Z,54.17
2019-02-15T12:47:24.355Z,54.55
2019-02-15T12:48:24.363Z,54.74
2019-02-15T12:49:24.372Z,54.55
2019-02-15T12:50:24.408Z,54.57
2019-02-15T12:51:24.420Z,53.91
2019-02-15T12:54:24.485Z,54.36
2019-02-15T12:55:24.492Z,53.59
2019-02-15T12:56:24.510Z,52.45
2019-02-15T12:57:24.536Z,52.64
2019-02-15T12:58:24.552Z,53.88
2019-02-15T12:59:24.584Z,54.55
2019-02-15T13:00:24.603Z,54.77
2019-02-15T13:01:24.710Z,53.33
2019-02-15T13:02:24.630Z,51.81
2019-02-15T13:03:24.647Z,52.38
2019-02-15T13:04:24.673Z,52
2019-02-15T13:05:24.687Z,51.68
2019-02-15T13:06:31.040Z,52.28
2019-02-15T13:07:24.726Z,51.43
2019-02-15T13:08:24.745Z,52.57
2019-02-15T13:09:24.765Z,53.14
2019-02-15T13:10:24.795Z,52.48
2019-02-15T13:11:24.804Z,52.45
2019-02-15T13:12:39.487Z,52.64
2019-02-15T13:13:26.745Z,52.28
2019-02-15T13:14:24.865Z,51.68
2019-02-15T13:15:24.894Z,50.09
2019-02-15T13:16:25.005Z,49.71
2019-02-15T13:17:27.362Z,49.33
2019-02-15T13:18:24.941Z,50.18
2019-02-15T13:20:24.983Z,50.28
2019-02-15T13:21:25.016Z,51.04
2019-02-15T13:22:25.020Z,50.47
2019-02-15T13:23:25.191Z,51.04
2019-02-15T13:24:25.064Z,51.33
2019-02-15T13:25:25.083Z,51.62
2019-02-15T13:26:25.368Z,51.23
2019-02-15T13:27:25.120Z,52.38
2019-02-15T13:28:39.803Z,51.04
2019-02-15T13:29:25.162Z,50.18
2019-02-15T13:30:25.181Z,51.04
2019-02-15T13:31:25.703Z,51.23
2019-02-15T13:32:25.256Z,50.57
2019-02-15T13:33:25.242Z,50.28
2019-02-15T13:34:25.263Z,51.9
2019-02-15T13:35:25.283Z,52.48
2019-02-15T13:36:25.297Z,52.28
2019-02-15T13:37:25.319Z,52.38
2019-02-15T13:38:25.337Z,52.09
2019-02-15T13:39:25.402Z,51.71
2019-02-15T13:40:25.425Z,51.43
2019-02-15T13:41:27.114Z,50.85
2019-02-15T13:42:25.424Z,50.57
2019-02-15T13:43:25.434Z,51.04
2019-02-15T13:44:40.118Z,51.33
2019-02-15T13:45:25.474Z,51.43